createdAt,value
2023-03-01T00:01:22.672Z,-0.64
2023-03-01T00:03:54.257Z,-0.69
2023-03-01T00:06:26.908Z,-0.72
2023-03-01T00:08:57.396Z,-0.72
2023-03-01T00:11:30.601Z,-0.63
2023-03-01T00:14:02.920Z,-0.60
2023-03-01T00:16:39.800Z,-0.68
2023-03-01T00:19:13.747Z,-0.80
2023-03-01T00:21:44.569Z,-0.85
2023-03-01T00:24:15.104Z,-0.84
2023-03-01T00:26:47.599Z,-0.87
2023-03-01T00:29:20.924Z,-0.86
2023-03-01T00:31:53.664Z,-0.92
2023-03-01T00:34:24.249Z,-0.94
2023-03-01T00:36:54.890Z,-0.99
2023-03-01T00:39:27.022Z,-0.94
2023-03-01T00:42:01.097Z,-0.98
2023-03-01T00:44:33.942Z,-0.89
2023-03-01T00:47:04.427Z,-0.90
2023-03-01T00:49:34.853Z,-0.96
2023-03-01T00:52:05.477Z,-0.91
2023-03-01T00:54:36.056Z,-0.86
2023-03-01T00:57:06.521Z,-1.10
2023-03-01T00:59:37.115Z,-1.16
2023-03-01T01:02:09.146Z,-1.20
2023-03-01T01:04:39.831Z,-1.18
2023-03-01T01:07:11.922Z,-1.22
2023-03-01T01:09:43.264Z,-1.30
2023-03-01T01:12:14.896Z,-1.34
2023-03-01T01:14:47.234Z,-1.37
2023-03-01T01:17:17.734Z,-1.26
2023-03-01T01:19:48.326Z,-1.20
2023-03-01T01:22:19.022Z,-1.20
2023-03-01T01:24:50.466Z,-1.20
2023-03-01T01:27:21.537Z,-1.25
2023-03-01T01:29:52.531Z,-1.28
2023-03-01T01:32:23.440Z,-1.28
2023-03-01T01:34:56.237Z,-1.30
2023-03-01T01:37:28.434Z,-1.32
2023-03-01T01:40:00.697Z,-1.36
2023-03-01T01:42:31.323Z,-1.27
2023-03-01T01:45:31.089Z,-1.06
2023-03-01T01:48:04.641Z,-1.04
2023-03-01T01:50:40.729Z,-1.08
2023-03-01T01:53:14.214Z,-1.17
2023-03-01T01:55:50.649Z,-1.06
2023-03-01T01:58:23.342Z,-1.24
2023-03-01T02:00:54.640Z,-1.28
2023-03-01T02:03:30.045Z,-1.45
2023-03-01T02:06:08.995Z,-1.50
2023-03-01T02:08:42.381Z,-1.58
2023-03-01T02:11:16.921Z,-1.62
2023-03-01T02:13:49.103Z,-1.68
2023-03-01T02:16:20.258Z,-1.73
2023-03-01T02:18:52.359Z,-1.75
2023-03-01T02:21:37.935Z,-1.56
2023-03-01T02:24:11.621Z,-1.68
2023-03-01T02:26:51.089Z,-1.67
2023-03-01T02:29:22.137Z,-1.56
2023-03-01T02:31:59.717Z,-1.56
2023-03-01T02:34:32.004Z,-1.56
2023-03-01T02:37:08.593Z,-1.52
2023-03-01T02:39:43.118Z,-1.52
2023-03-01T02:42:17.120Z,-1.54
2023-03-01T02:44:47.706Z,-1.56
2023-03-01T02:47:18.301Z,-1.52
2023-03-01T02:49:48.802Z,-1.55
2023-03-01T02:52:52.980Z,-1.60
2023-03-01T02:55:24.896Z,-1.62
2023-03-01T02:57:58.605Z,-1.60
2023-03-01T03:00:32.162Z,-1.54
2023-03-01T03:03:02.778Z,-1.58
2023-03-01T03:05:34.195Z,-1.60
2023-03-01T03:08:05.707Z,-1.62
2023-03-01T03:10:38.777Z,-1.58
2023-03-01T03:13:13.504Z,-1.67
2023-03-01T03:15:45.382Z,-1.62
2023-03-01T03:18:17.947Z,-1.66
2023-03-01T03:20:48.883Z,-1.72
2023-03-01T03:23:19.534Z,-1.71
2023-03-01T03:25:53.280Z,-1.76
2023-03-01T03:28:23.947Z,-1.77
2023-03-01T03:30:54.701Z,-1.78
2023-03-01T03:33:25.068Z,-1.78
2023-03-01T03:35:55.635Z,-1.84
2023-03-01T03:38:26.741Z,-1.84
2023-03-01T03:41:03.362Z,-1.84
2023-03-01T03:43:36.899Z,-1.84
2023-03-01T03:46:08.344Z,-1.86
2023-03-01T03:48:42.261Z,-1.82
2023-03-01T03:51:15.658Z,-1.86
2023-03-01T03:53:47.220Z,-1.88
2023-03-01T03:56:17.732Z,-1.88
2023-03-01T03:58:48.499Z,-1.86
2023-03-01T04:01:19.172Z,-1.78
2023-03-01T04:03:49.952Z,-1.85
2023-03-01T04:06:20.506Z,-1.87
2023-03-01T04:08:54.345Z,-1.94
2023-03-01T04:11:27.794Z,-1.96
2023-03-01T04:14:01.084Z,-1.84
2023-03-01T04:16:32.175Z,-1.90
2023-03-01T04:19:03.759Z,-1.96
2023-03-01T04:21:34.285Z,-1.98
2023-03-01T04:24:07.723Z,-2.01
2023-03-01T04:26:38.179Z,-1.92
2023-03-01T04:29:08.749Z,-1.86
2023-03-01T04:31:39.443Z,-2.00
2023-03-01T04:34:10.086Z,-1.84
2023-03-01T04:36:40.991Z,-1.86
2023-03-01T04:39:13.648Z,-1.82
2023-03-01T04:41:47.368Z,-1.95
2023-03-01T04:44:20.293Z,-2.00
2023-03-01T04:46:51.889Z,-2.10
2023-03-01T04:49:22.583Z,-2.14
2023-03-01T04:51:53.136Z,-2.14
2023-03-01T04:54:23.594Z,-2.13
2023-03-01T04:56:55.515Z,-2.17
2023-03-01T04:59:25.985Z,-2.08
2023-03-01T05:01:58.387Z,-1.94
2023-03-01T05:04:31.436Z,-1.84
2023-03-01T05:07:01.982Z,-1.75
2023-03-01T05:09:32.337Z,-1.98
2023-03-01T05:12:03.404Z,-1.78
2023-03-01T05:14:34.618Z,-1.94
2023-03-01T05:17:05.230Z,-1.96
2023-03-01T05:19:36.683Z,-1.82
2023-03-01T05:22:07.461Z,-2.05
2023-03-01T05:24:40.701Z,-2.04
2023-03-01T05:27:11.226Z,-2.09
2023-03-01T05:29:41.862Z,-1.96
2023-03-01T05:32:14.607Z,-2.20
2023-03-01T05:34:46.811Z,-2.28
2023-03-01T05:37:17.667Z,-2.26
2023-03-01T05:39:50.963Z,-2.26
2023-03-01T05:42:22.013Z,-2.30
2023-03-01T05:44:52.626Z,-2.30
2023-03-01T05:47:26.376Z,-2.24
2023-03-01T05:49:57.446Z,-2.20
2023-03-01T05:52:28.038Z,-2.22
2023-03-01T05:55:00.750Z,-2.16
2023-03-01T05:57:31.824Z,-2.28
2023-03-01T06:00:02.493Z,-2.24
2023-03-01T06:02:33.293Z,-2.22
2023-03-01T06:05:03.841Z,-2.14
2023-03-01T06:07:37.471Z,-2.13
2023-03-01T06:10:09.530Z,-2.02
2023-03-01T06:12:41.181Z,-1.88
2023-03-01T06:15:15.738Z,-1.94
2023-03-01T06:17:48.494Z,-1.84
2023-03-01T06:20:22.022Z,-1.80
2023-03-01T06:22:52.593Z,-1.81
2023-03-01T06:25:25.250Z,-1.63
2023-03-01T06:27:59.515Z,-1.70
2023-03-01T06:30:30.937Z,-1.72
2023-03-01T06:33:03.672Z,-1.52
2023-03-01T06:35:34.538Z,-1.58
2023-03-01T06:38:06.395Z,-1.46
2023-03-01T06:40:37.038Z,-1.54
2023-03-01T06:43:08.452Z,-1.45
2023-03-01T06:45:39.589Z,-1.43
2023-03-01T06:48:12.221Z,-1.32
2023-03-01T06:50:44.506Z,-1.42
2023-03-01T06:53:15.173Z,-1.46
2023-03-01T06:55:47.238Z,-1.35
2023-03-01T06:58:17.961Z,-1.20
2023-03-01T07:00:51.302Z,-1.14
2023-03-01T07:03:23.993Z,-0.89
2023-03-01T07:05:55.476Z,-0.76
2023-03-01T07:08:26.046Z,-0.74
2023-03-01T07:11:00.490Z,-0.70
2023-03-01T07:13:32.450Z,-0.65
2023-03-01T07:16:04.493Z,-0.63
2023-03-01T07:18:35.170Z,-0.41
2023-03-01T07:21:14.698Z,-0.46
2023-03-01T07:23:45.641Z,-0.28
2023-03-01T07:26:16.206Z,-0.16
2023-03-01T07:28:47.792Z,-0.10
2023-03-01T07:31:18.352Z,-0.24
2023-03-01T07:33:48.803Z,-0.08
2023-03-01T07:36:19.213Z,0.10
2023-03-01T07:38:50.769Z,0.13
2023-03-01T07:41:21.331Z,0.38
2023-03-01T07:43:53.478Z,0.43
2023-03-01T07:46:27.759Z,0.56
2023-03-01T07:48:59.428Z,0.52
2023-03-01T07:51:29.930Z,0.77
2023-03-01T07:54:00.580Z,0.80
2023-03-01T07:56:31.513Z,1.03
2023-03-01T07:59:02.395Z,1.19
2023-03-01T08:01:33.048Z,1.34
2023-03-01T08:04:03.620Z,1.54
2023-03-01T08:06:36.557Z,1.65
2023-03-01T08:09:07.544Z,1.56
2023-03-01T08:11:38.838Z,1.60
2023-03-01T08:14:09.569Z,1.84
2023-03-01T08:16:51.063Z,1.82
2023-03-01T08:19:21.687Z,1.90
2023-03-01T08:21:52.552Z,2.18
2023-03-01T08:24:24.962Z,2.29
2023-03-01T08:26:56.056Z,2.47
2023-03-01T08:29:29.445Z,2.48
2023-03-01T08:32:00.290Z,2.82
2023-03-01T08:34:32.332Z,2.90
2023-03-01T08:37:03.050Z,2.90
2023-03-01T08:39:33.623Z,3.18
2023-03-01T08:42:05.618Z,3.00
2023-03-01T08:44:36.176Z,3.30
2023-03-01T08:47:06.887Z,3.29
2023-03-01T08:49:37.646Z,3.31
2023-03-01T08:52:08.349Z,3.67
2023-03-01T08:54:38.941Z,3.82
2023-03-01T08:57:11.123Z,3.73
2023-03-01T08:59:42.448Z,3.99
2023-03-01T09:02:16.354Z,3.84
2023-03-01T09:04:47.062Z,3.72
2023-03-01T09:07:19.308Z,3.88
2023-03-01T09:09:49.810Z,4.06
2023-03-01T09:12:20.856Z,3.98
2023-03-01T09:14:51.249Z,3.91
2023-03-01T09:17:23.330Z,4.17
2023-03-01T09:19:55.582Z,4.34
2023-03-01T09:22:26.332Z,4.50
2023-03-01T09:24:57.500Z,4.32
2023-03-01T09:27:28.008Z,4.63
2023-03-01T09:29:58.984Z,4.70
2023-03-01T09:32:32.979Z,4.72
2023-03-01T09:35:06.297Z,4.74
2023-03-01T09:37:38.792Z,4.89
2023-03-01T09:40:19.411Z,5.03
2023-03-01T09:42:58.812Z,5.16
2023-03-01T09:45:32.465Z,4.90
2023-03-01T09:48:05.221Z,5.36
2023-03-01T09:50:43.604Z,4.84
2023-03-01T09:53:23.191Z,4.84
2023-03-01T09:56:06.768Z,5.02
2023-03-01T09:58:55.756Z,5.12
2023-03-01T10:01:36.110Z,4.92
2023-03-01T10:04:29.704Z,4.98
2023-03-01T10:07:19.041Z,5.42
2023-03-01T10:09:50.067Z,5.56
2023-03-01T10:12:24.328Z,5.92
2023-03-01T10:15:03.963Z,5.81
2023-03-01T10:17:40.519Z,5.74
2023-03-01T10:20:23.620Z,5.62
2023-03-01T10:22:56.339Z,5.92
2023-03-01T10:25:43.562Z,5.78
2023-03-01T10:28:23.149Z,5.70
2023-03-01T10:30:54.733Z,5.82
2023-03-01T10:33:31.153Z,5.70
2023-03-01T10:36:03.634Z,5.88
2023-03-01T10:38:53.341Z,6.18
2023-03-01T10:41:25.818Z,6.32
2023-03-01T10:44:03.262Z,6.08
2023-03-01T10:46:38.708Z,6.12
2023-03-01T10:49:18.667Z,6.16
2023-03-01T10:51:51.990Z,6.17
2023-03-01T10:54:32.076Z,6.42
2023-03-01T10:57:07.063Z,6.54
2023-03-01T10:59:40.014Z,6.22
2023-03-01T11:02:31.473Z,6.29
2023-03-01T11:05:04.754Z,6.42
2023-03-01T11:07:38.822Z,6.06
2023-03-01T11:10:13.928Z,6.08
2023-03-01T11:12:44.597Z,6.16
2023-03-01T11:15:31.289Z,6.46
2023-03-01T11:18:13.539Z,6.55
2023-03-01T11:20:39.217Z,6.77
2023-03-01T11:23:15.393Z,6.96
2023-03-01T11:25:50.568Z,6.83
2023-03-01T11:28:24.306Z,6.56
2023-03-01T11:31:12.070Z,7.00
2023-03-01T11:33:45.854Z,7.13
2023-03-01T11:36:31.276Z,7.02
2023-03-01T11:39:28.776Z,6.72
2023-03-01T11:42:18.101Z,7.13
2023-03-01T11:44:39.800Z,7.36
2023-03-01T11:47:30.177Z,7.40
2023-03-01T11:50:24.505Z,7.52
2023-03-01T11:53:06.327Z,7.50
2023-03-01T11:56:02.314Z,7.54
2023-03-01T11:58:41.927Z,7.66
2023-03-01T12:01:42.687Z,7.71
2023-03-01T12:04:29.575Z,7.62
2023-03-01T12:07:09.932Z,7.50
2023-03-01T12:09:46.275Z,7.70
2023-03-01T12:12:48.573Z,7.60
2023-03-01T12:15:55.388Z,7.94
2023-03-01T12:18:34.991Z,7.95
2023-03-01T12:21:15.720Z,7.64
2023-03-01T12:24:04.851Z,7.39
2023-03-01T12:26:38.638Z,7.60
2023-03-01T12:29:28.970Z,7.61
2023-03-01T12:32:20.891Z,7.90
2023-03-01T12:35:31.069Z,7.76
2023-03-01T12:38:21.190Z,7.81
2023-03-01T12:41:19.060Z,7.85
2023-03-01T12:44:02.662Z,7.80
2023-03-01T12:46:57.722Z,8.14
2023-03-01T12:49:37.368Z,8.26
2023-03-01T12:52:26.135Z,8.42
2023-03-01T12:55:00.031Z,7.88
2023-03-01T12:57:38.274Z,7.76
2023-03-01T13:00:16.326Z,8.01
2023-03-01T13:02:55.780Z,8.12
2023-03-01T13:05:35.177Z,8.04
2023-03-01T13:08:25.302Z,7.97
2023-03-01T13:10:59.845Z,8.08
2023-03-01T13:13:31.085Z,8.08
2023-03-01T13:16:23.886Z,8.15
2023-03-01T13:18:57.496Z,8.02
2023-03-01T13:21:33.132Z,8.02
2023-03-01T13:24:04.073Z,8.14
2023-03-01T13:26:37.663Z,8.10
2023-03-01T13:29:12.191Z,8.28
2023-03-01T13:31:45.936Z,8.18
2023-03-01T13:34:55.661Z,8.19
2023-03-01T13:37:30.527Z,8.08
2023-03-01T13:40:05.939Z,7.97
2023-03-01T13:42:40.666Z,7.86
2023-03-01T13:45:37.144Z,7.86
2023-03-01T13:48:19.619Z,7.98
2023-03-01T13:51:05.603Z,8.18
2023-03-01T13:53:40.660Z,8.09
2023-03-01T13:56:23.610Z,7.94
2023-03-01T13:59:06.060Z,7.89
2023-03-01T14:01:38.237Z,7.95
2023-03-01T14:04:25.015Z,8.08
2023-03-01T14:07:13.653Z,8.08
2023-03-01T14:09:47.316Z,8.17
2023-03-01T14:12:30.025Z,8.32
2023-03-01T14:15:22.339Z,8.32
2023-03-01T14:18:16.833Z,8.15
2023-03-01T14:20:49.266Z,8.06
2023-03-01T14:23:25.139Z,8.38
2023-03-01T14:26:00.157Z,8.98
2023-03-01T14:28:35.165Z,8.98
2023-03-01T14:31:26.088Z,8.64
2023-03-01T14:33:57.996Z,8.53
2023-03-01T14:36:31.566Z,8.22
2023-03-01T14:39:04.601Z,8.36
2023-03-01T14:41:37.546Z,8.82
2023-03-01T14:44:11.076Z,8.88
2023-03-01T14:46:44.480Z,8.70
2023-03-01T14:49:31.113Z,8.39
2023-03-01T14:52:04.921Z,8.18
2023-03-01T14:54:43.539Z,8.28
2023-03-01T14:57:22.793Z,8.19
2023-03-01T14:59:59.920Z,8.20
2023-03-01T15:02:34.249Z,7.90
2023-03-01T15:05:09.000Z,7.94
2023-03-01T15:07:42.653Z,7.88
2023-03-01T15:10:23.119Z,7.85
2023-03-01T15:12:54.321Z,7.99
2023-03-01T15:15:33.647Z,7.96
2023-03-01T15:18:07.342Z,7.88
2023-03-01T15:20:37.819Z,7.88
2023-03-01T15:23:11.630Z,7.84
2023-03-01T15:25:45.152Z,7.86
2023-03-01T15:28:18.634Z,7.64
2023-03-01T15:30:52.216Z,7.62
2023-03-01T15:33:29.197Z,7.68
2023-03-01T15:36:02.360Z,7.62
2023-03-01T15:38:55.232Z,7.62
2023-03-01T15:41:34.484Z,7.54
2023-03-01T15:44:07.974Z,7.37
2023-03-01T15:46:39.116Z,7.41
2023-03-01T15:49:30.969Z,7.44
2023-03-01T15:52:01.542Z,7.23
2023-03-01T15:54:32.257Z,7.28
2023-03-01T15:57:03.313Z,7.36
2023-03-01T15:59:33.818Z,7.15
2023-03-01T16:02:05.818Z,7.23
2023-03-01T16:04:36.473Z,7.15
2023-03-01T16:07:07.564Z,7.17
2023-03-01T16:09:38.050Z,6.97
2023-03-01T16:12:10.100Z,6.83
2023-03-01T16:14:40.616Z,7.05
2023-03-01T16:17:11.352Z,7.04
2023-03-01T16:19:42.070Z,6.92
2023-03-01T16:22:13.061Z,6.85
2023-03-01T16:24:43.840Z,6.89
2023-03-01T16:27:16.352Z,6.61
2023-03-01T16:29:48.512Z,6.65
2023-03-01T16:32:18.975Z,6.60
2023-03-01T16:34:50.450Z,6.48
2023-03-01T16:37:22.067Z,6.59
2023-03-01T16:39:54.035Z,6.46
2023-03-01T16:42:24.863Z,6.24
2023-03-01T16:44:58.777Z,6.22
2023-03-01T16:47:30.456Z,6.34
2023-03-01T16:50:01.117Z,6.23
2023-03-01T16:52:31.750Z,6.16
2023-03-01T16:55:04.534Z,5.99
2023-03-01T16:57:40.362Z,5.87
2023-03-01T17:00:15.905Z,5.89
2023-03-01T17:02:46.614Z,5.90
2023-03-01T17:05:18.454Z,5.78
2023-03-01T17:07:48.913Z,5.62
2023-03-01T17:10:20.085Z,5.66
2023-03-01T17:12:51.775Z,5.65
2023-03-01T17:15:22.308Z,5.80
2023-03-01T17:17:52.771Z,5.80
2023-03-01T17:20:23.331Z,5.82
2023-03-01T17:22:53.679Z,5.72
2023-03-01T17:25:24.325Z,5.78
2023-03-01T17:27:56.507Z,5.80
2023-03-01T17:30:28.288Z,5.70
2023-03-01T17:33:00.788Z,5.34
2023-03-01T17:35:32.063Z,5.24
2023-03-01T17:38:02.549Z,5.18
2023-03-01T17:40:37.738Z,5.41
2023-03-01T17:43:09.917Z,5.22
2023-03-01T17:45:41.194Z,5.28
2023-03-01T17:48:11.897Z,5.16
2023-03-01T17:50:43.332Z,5.10
2023-03-01T17:53:14.638Z,4.95
2023-03-01T17:55:46.260Z,4.86
2023-03-01T17:58:20.210Z,4.96
2023-03-01T18:00:51.852Z,4.92
2023-03-01T18:03:22.197Z,4.74
2023-03-01T18:05:54.456Z,4.67
2023-03-01T18:08:26.263Z,4.77
2023-03-01T18:11:01.027Z,5.01
2023-03-01T18:13:31.592Z,4.74
2023-03-01T18:16:04.121Z,4.50
2023-03-01T18:18:35.178Z,4.35
2023-03-01T18:21:08.481Z,4.33
2023-03-01T18:23:40.269Z,4.26
2023-03-01T18:26:15.688Z,4.44
2023-03-01T18:28:48.115Z,4.30
2023-03-01T18:31:22.971Z,4.44
2023-03-01T18:33:55.675Z,4.41
2023-03-01T18:36:29.083Z,4.37
2023-03-01T18:39:00.022Z,4.34
2023-03-01T18:41:32.811Z,4.13
2023-03-01T18:44:05.197Z,4.05
2023-03-01T18:46:38.802Z,3.94
2023-03-01T18:49:12.206Z,3.88
2023-03-01T18:51:44.038Z,3.86
2023-03-01T18:54:14.579Z,3.93
2023-03-01T18:56:45.097Z,3.88
2023-03-01T18:59:18.880Z,3.86
2023-03-01T19:01:49.378Z,3.83
2023-03-01T19:04:19.885Z,3.71
2023-03-01T19:06:50.470Z,4.16
2023-03-01T19:09:22.568Z,4.08
2023-03-01T19:11:53.076Z,4.00
2023-03-01T19:14:28.296Z,4.16
2023-03-01T19:17:00.888Z,4.00
2023-03-01T19:19:31.442Z,3.80
2023-03-01T19:22:08.571Z,3.66
2023-03-01T19:24:34.766Z,3.57
2023-03-01T19:27:05.533Z,3.46
2023-03-01T19:29:37.801Z,3.47
2023-03-01T19:32:09.847Z,3.34
2023-03-01T19:34:41.648Z,3.40
2023-03-01T19:37:12.950Z,3.32
2023-03-01T19:39:44.343Z,3.22
2023-03-01T19:42:14.842Z,3.18
2023-03-01T19:44:45.352Z,3.18
2023-03-01T19:47:15.990Z,3.09
2023-03-01T19:49:46.971Z,3.08
2023-03-01T19:52:19.893Z,3.09
2023-03-01T19:54:53.823Z,3.08
2023-03-01T19:57:24.553Z,3.02
2023-03-01T19:59:55.043Z,3.03
2023-03-01T20:02:27.846Z,3.00
2023-03-01T20:04:58.824Z,2.96
2023-03-01T20:07:29.341Z,2.90
2023-03-01T20:09:59.853Z,2.81
2023-03-01T20:12:31.521Z,2.81
2023-03-01T20:15:02.608Z,2.80
2023-03-01T20:17:33.192Z,2.78
2023-03-01T20:20:05.533Z,2.82
2023-03-01T20:22:38.453Z,2.78
2023-03-01T20:25:11.903Z,2.74
2023-03-01T20:27:44.138Z,2.70
2023-03-01T20:30:16.860Z,2.70
2023-03-01T20:32:48.723Z,2.62
2023-03-01T20:35:21.738Z,2.58
2023-03-01T20:37:55.070Z,2.68
2023-03-01T20:40:27.885Z,2.60
2023-03-01T20:43:00.415Z,2.55
2023-03-01T20:45:31.051Z,2.52
2023-03-01T20:48:01.549Z,2.52
2023-03-01T20:50:33.343Z,2.52
2023-03-01T20:53:04.031Z,2.50
2023-03-01T20:55:34.998Z,2.42
2023-03-01T20:58:07.316Z,2.36
2023-03-01T21:00:38.500Z,2.38
2023-03-01T21:03:09.605Z,2.37
2023-03-01T21:05:42.858Z,2.32
2023-03-01T21:08:16.360Z,2.31
2023-03-01T21:10:53.891Z,2.28
2023-03-01T21:13:33.034Z,2.28
2023-03-01T21:16:06.499Z,2.23
2023-03-01T21:18:37.024Z,2.21
2023-03-01T21:21:12.636Z,2.19
2023-03-01T21:23:44.809Z,2.17
2023-03-01T21:26:27.487Z,2.20
2023-03-01T21:29:02.645Z,2.16
2023-03-01T21:31:36.348Z,2.20
2023-03-01T21:34:15.928Z,2.12
2023-03-01T21:36:47.162Z,2.05
2023-03-01T21:39:18.000Z,2.02
2023-03-01T21:41:52.474Z,2.02
2023-03-01T21:44:23.790Z,1.96
2023-03-01T21:46:55.112Z,1.92
2023-03-01T21:49:26.932Z,1.94
2023-03-01T21:51:57.520Z,1.84
2023-03-01T21:54:28.548Z,1.90
2023-03-01T21:56:59.012Z,1.91
2023-03-01T21:59:29.928Z,1.82
2023-03-01T22:02:00.658Z,1.87
2023-03-01T22:04:31.253Z,1.86
2023-03-01T22:07:04.348Z,1.86
2023-03-01T22:09:36.297Z,1.78
2023-03-01T22:12:08.841Z,1.77
2023-03-01T22:14:41.065Z,1.80
2023-03-01T22:17:12.079Z,1.78
2023-03-01T22:19:42.476Z,1.65
2023-03-01T22:22:25.521Z,1.66
2023-03-01T22:24:56.039Z,1.76
2023-03-01T22:27:27.633Z,1.65
2023-03-01T22:29:58.385Z,1.66
2023-03-01T22:32:29.010Z,1.62
2023-03-01T22:35:00.079Z,1.56
2023-03-01T22:37:30.577Z,1.60
2023-03-01T22:40:01.331Z,1.62
2023-03-01T22:42:32.649Z,1.50
2023-03-01T22:45:06.785Z,1.54
2023-03-01T22:47:39.668Z,1.34
2023-03-01T22:50:12.764Z,1.39
2023-03-01T22:52:43.696Z,1.21
2023-03-01T22:55:14.877Z,1.16
2023-03-01T22:57:45.755Z,1.20
2023-03-01T23:00:17.073Z,1.16
2023-03-01T23:02:47.734Z,1.24
2023-03-01T23:05:18.829Z,1.22
2023-03-01T23:07:49.659Z,1.13
2023-03-01T23:10:22.437Z,1.00
2023-03-01T23:12:57.595Z,1.06
2023-03-01T23:15:28.126Z,0.92
2023-03-01T23:18:00.226Z,0.97
2023-03-01T23:20:30.772Z,0.95
2023-03-01T23:23:01.574Z,0.93
2023-03-01T23:25:33.746Z,0.87
2023-03-01T23:28:04.593Z,0.96
2023-03-01T23:30:35.357Z,0.91
2023-03-01T23:33:05.834Z,0.90
2023-03-01T23:35:39.446Z,0.93
2023-03-01T23:38:10.156Z,0.91
2023-03-01T23:40:42.365Z,0.96
2023-03-01T23:43:12.867Z,1.16
2023-03-01T23:45:43.886Z,1.23
2023-03-01T23:48:15.605Z,1.22
2023-03-01T23:50:47.069Z,1.22
2023-03-01T23:53:22.282Z,1.20
2023-03-01T23:55:56.291Z,1.10
2023-03-01T23:58:30.909Z,1.16
